<?xml version="1.0" encoding="UTF-8" standalone="no" ?>
<gpx xmlns="http://www.topografix.com/GPX/1/1" xmlns:xsi="http://www.w3.org/2001/XMLSchema-instance" xsi:schemaLocation="http://www.topografix.com/GPX/1/1 http://www.topografix.com/GPX/1/1/gpx.xsd" version="1.1" creator="VisuGPX - https://www.visugpx.com">
  <metadata>
    <name>GTPA grenoble-nice</name>
  </metadata>
  <trk>
    <name><![CDATA[GTPA grenoble-nice]]></name>
    <trkseg>
      <trkpt lat="43.98413" lon="6.50671">
        <ele>977</ele>
        <time>2009-07-22T10:58:17Z</time>
      </trkpt>
      <trkpt lat="43.96935" lon="6.51095">
        <ele>916</ele>
        <time>2009-07-22T08:38:51Z</time>
      </trkpt>
      <trkpt lat="43.96616" lon="6.50837">
        <ele>936</ele>
        <time>2009-07-22T08:46:05Z</time>
      </trkpt>
      <trkpt lat="43.96187" lon="6.50222">
        <ele>905</ele>
        <time>2009-07-22T08:50:57Z</time>
      </trkpt>
      <trkpt lat="43.95778" lon="6.50118">
        <ele>964</ele>
        <time>2009-07-22T09:02:44Z</time>
      </trkpt>
      <trkpt lat="43.95958" lon="6.49759">
        <ele>1014</ele>
        <time>2009-07-22T09:09:49Z</time>
      </trkpt>
      <trkpt lat="43.95725" lon="6.49973">
        <ele>1009</ele>
        <time>2009-07-22T09:15:02Z</time>
      </trkpt>
      <trkpt lat="43.95536" lon="6.50235">
        <ele>972</ele>
        <time>2009-07-22T09:17:08Z</time>
      </trkpt>
      <trkpt lat="43.9559" lon="6.50652">
        <ele>941</ele>
        <time>2009-07-22T09:20:40Z</time>
      </trkpt>
      <trkpt lat="43.94804" lon="6.50751">
        <ele>1073</ele>
        <time>2009-07-22T09:43:56Z</time>
      </trkpt>
      <trkpt lat="43.93979" lon="6.50313">
        <ele>1124</ele>
        <time>2009-07-22T09:52:42Z</time>
      </trkpt>
      <trkpt lat="43.94042" lon="6.49921">
        <ele>1164</ele>
        <time>2009-07-22T09:59:19Z</time>
      </trkpt>
      <trkpt lat="43.9338" lon="6.49997">
        <ele>1277</ele>
        <time>2009-07-22T10:12:38Z</time>
      </trkpt>
      <trkpt lat="43.9337" lon="6.50184">
        <ele>1265</ele>
        <time>2009-07-22T10:14:59Z</time>
      </trkpt>
      <trkpt lat="43.93215" lon="6.49947">
        <ele>1331</ele>
        <time>2009-07-22T10:16:59Z</time>
      </trkpt>
      <trkpt lat="43.9302" lon="6.50426">
        <ele>1311</ele>
        <time>2009-07-22T10:25:08Z</time>
      </trkpt>
      <trkpt lat="43.92512" lon="6.50891">
        <ele>1285</ele>
      </trkpt>
      <trkpt lat="43.91473" lon="6.50926">
        <ele>1264</ele>
      </trkpt>
      <trkpt lat="43.91159" lon="6.50884">
        <ele>1229</ele>
      </trkpt>
      <trkpt lat="43.90653" lon="6.51656">
        <ele>1205</ele>
      </trkpt>
      <trkpt lat="43.90415" lon="6.52196">
        <ele>1152</ele>
      </trkpt>
      <trkpt lat="43.90209" lon="6.51982">
        <ele>1119</ele>
      </trkpt>
      <trkpt lat="43.90115" lon="6.52353">
        <ele>1059</ele>
      </trkpt>
      <trkpt lat="43.89192" lon="6.50814">
        <ele>1130</ele>
      </trkpt>
      <trkpt lat="43.89266" lon="6.50237">
        <ele>1157</ele>
      </trkpt>
      <trkpt lat="43.88718" lon="6.5022">
        <ele>1079</ele>
      </trkpt>
      <trkpt lat="43.8828" lon="6.5069">
        <ele>1062</ele>
      </trkpt>
      <trkpt lat="43.8793" lon="6.50238">
        <ele>949</ele>
      </trkpt>
      <trkpt lat="43.87262" lon="6.51089">
        <ele>898</ele>
      </trkpt>
      <trkpt lat="43.86422" lon="6.51195">
        <ele>870</ele>
      </trkpt>
      <trkpt lat="43.86027" lon="6.51573">
        <ele>859</ele>
      </trkpt>
      <trkpt lat="43.85595" lon="6.51207">
        <ele>812</ele>
      </trkpt>
      <trkpt lat="43.85572" lon="6.51527">
        <ele>840</ele>
      </trkpt>
      <trkpt lat="43.85051" lon="6.50834">
        <ele>748</ele>
      </trkpt>
      <trkpt lat="43.84508" lon="6.51487">
        <ele>735</ele>
        <time>2009-07-22T13:17:13Z</time>
      </trkpt>
      <trkpt lat="43.84242" lon="6.52862">
        <ele>728</ele>
        <time>2009-07-22T13:19:13Z</time>
      </trkpt>
      <trkpt lat="43.84448" lon="6.54103">
        <ele>820</ele>
        <time>2009-05-05T08:33:59Z</time>
      </trkpt>
      <trkpt lat="43.84447" lon="6.55789">
        <ele>1018</ele>
        <time>2009-05-05T09:01:01Z</time>
      </trkpt>
      <trkpt lat="43.8487" lon="6.57905">
        <ele>1291</ele>
        <time>2009-05-05T09:38:03Z</time>
      </trkpt>
      <trkpt lat="43.85471" lon="6.59057">
        <ele>1238</ele>
        <time>2009-05-05T09:47:13Z</time>
      </trkpt>
      <trkpt lat="43.85784" lon="6.5898">
        <ele>1296</ele>
        <time>2009-05-05T09:50:34Z</time>
      </trkpt>
      <trkpt lat="43.86206" lon="6.59293">
        <ele>1307</ele>
        <time>2009-05-05T09:56:25Z</time>
      </trkpt>
      <trkpt lat="43.86418" lon="6.59578">
        <ele>1296</ele>
        <time>2009-05-05T09:57:37Z</time>
      </trkpt>
      <trkpt lat="43.86703" lon="6.62305">
        <ele>1335</ele>
        <time>2009-05-05T10:10:14Z</time>
      </trkpt>
      <trkpt lat="43.86585" lon="6.63321">
        <ele>1375</ele>
        <time>2009-05-05T10:17:43Z</time>
      </trkpt>
      <trkpt lat="43.86663" lon="6.63775">
        <ele>1397</ele>
        <time>2009-05-05T10:18:04Z</time>
      </trkpt>
      <trkpt lat="43.86714" lon="6.63128">
        <ele>1416</ele>
        <time>2009-05-05T10:18:31Z</time>
      </trkpt>
      <trkpt lat="43.86986" lon="6.62704">
        <ele>1456</ele>
        <time>2009-05-05T10:18:54Z</time>
      </trkpt>
      <trkpt lat="43.87226" lon="6.62607">
        <ele>1477</ele>
        <time>2009-05-05T10:19:48Z</time>
      </trkpt>
      <trkpt lat="43.87527" lon="6.6247">
        <ele>1539</ele>
        <time>2009-05-05T10:20:12Z</time>
      </trkpt>
      <trkpt lat="43.8775" lon="6.62877">
        <ele>1557</ele>
        <time>2009-05-05T10:20:38Z</time>
      </trkpt>
      <trkpt lat="43.87897" lon="6.6277">
        <ele>1567</ele>
        <time>2009-05-05T10:20:50Z</time>
      </trkpt>
      <trkpt lat="43.88369" lon="6.63064">
        <ele>1595</ele>
        <time>2009-05-05T10:21:22Z</time>
      </trkpt>
      <trkpt lat="43.88495" lon="6.63406">
        <ele>1617</ele>
        <time>2009-05-05T09:00:10Z</time>
      </trkpt>
      <trkpt lat="43.88368" lon="6.64152">
        <ele>1608</ele>
        <time>2009-05-05T09:04:46Z</time>
      </trkpt>
      <trkpt lat="43.88934" lon="6.65051">
        <ele>1525</ele>
        <time>2009-05-05T09:11:59Z</time>
      </trkpt>
      <trkpt lat="43.89118" lon="6.65573">
        <ele>1422</ele>
        <time>2009-05-05T09:14:23Z</time>
      </trkpt>
      <trkpt lat="43.8916" lon="6.65483">
        <ele>1401</ele>
        <time>2009-05-05T09:14:53Z</time>
      </trkpt>
      <trkpt lat="43.89589" lon="6.66063">
        <ele>1390</ele>
        <time>2009-05-05T09:37:10Z</time>
      </trkpt>
      <trkpt lat="43.89928" lon="6.67095">
        <ele>1255</ele>
        <time>2009-05-05T09:39:54Z</time>
      </trkpt>
      <trkpt lat="43.89662" lon="6.66877">
        <ele>1235</ele>
        <time>2009-05-05T09:45:15Z</time>
      </trkpt>
      <trkpt lat="43.89741" lon="6.67262">
        <ele>1202</ele>
        <time>2009-05-05T09:46:24Z</time>
      </trkpt>
      <trkpt lat="43.89421" lon="6.67458">
        <ele>1262</ele>
        <time>2009-05-05T09:52:42Z</time>
      </trkpt>
      <trkpt lat="43.89165" lon="6.6858">
        <ele>1274</ele>
        <time>2009-05-05T10:02:53Z</time>
      </trkpt>
      <trkpt lat="43.8854" lon="6.68719">
        <ele>1302</ele>
        <time>2009-05-05T10:16:44Z</time>
      </trkpt>
      <trkpt lat="43.8825" lon="6.68667">
        <ele>1213</ele>
        <time>2009-05-05T10:23:12Z</time>
      </trkpt>
      <trkpt lat="43.87862" lon="6.69314">
        <ele>1147</ele>
        <time>2009-05-05T10:40:41Z</time>
      </trkpt>
      <trkpt lat="43.87653" lon="6.69555">
        <ele>1078</ele>
        <time>2009-05-05T10:41:47Z</time>
      </trkpt>
      <trkpt lat="43.8687" lon="6.69395">
        <ele>1139</ele>
        <time>2009-05-05T10:53:35Z</time>
      </trkpt>
      <trkpt lat="43.86595" lon="6.69217">
        <ele>1157</ele>
        <time>2009-05-05T11:02:35Z</time>
      </trkpt>
      <trkpt lat="43.86174" lon="6.68907">
        <ele>1068</ele>
        <time>2009-05-05T11:08:24Z</time>
      </trkpt>
      <trkpt lat="43.8616" lon="6.69426">
        <ele>1061</ele>
        <time>2009-05-05T11:18:21Z</time>
      </trkpt>
      <trkpt lat="43.86312" lon="6.69816">
        <ele>993</ele>
        <time>2009-05-05T11:24:06Z</time>
      </trkpt>
      <trkpt lat="43.86066" lon="6.70188">
        <ele>1023</ele>
        <time>2009-05-05T11:33:47Z</time>
      </trkpt>
      <trkpt lat="43.86039" lon="6.6994">
        <ele>988</ele>
        <time>2009-05-05T11:34:29Z</time>
      </trkpt>
      <trkpt lat="43.8581" lon="6.69819">
        <ele>950</ele>
        <time>2009-05-05T11:37:30Z</time>
      </trkpt>
      <trkpt lat="43.8565" lon="6.70276">
        <ele>947</ele>
        <time>2009-05-05T11:39:07Z</time>
      </trkpt>
      <trkpt lat="43.85684" lon="6.72229">
        <ele>927</ele>
        <time>2009-05-05T11:52:16Z</time>
      </trkpt>
      <trkpt lat="43.85685" lon="6.72033">
        <ele>937</ele>
        <time>2009-05-05T11:52:59Z</time>
      </trkpt>
      <trkpt lat="43.85141" lon="6.72765">
        <ele>1221</ele>
        <time>2009-05-05T12:00:52Z</time>
      </trkpt>
      <trkpt lat="43.85078" lon="6.72998">
        <ele>1152</ele>
        <time>2009-05-05T12:01:51Z</time>
      </trkpt>
      <trkpt lat="43.8494" lon="6.73097">
        <ele>1131</ele>
        <time>2009-05-05T12:02:20Z</time>
      </trkpt>
      <trkpt lat="43.84748" lon="6.73191">
        <ele>1041</ele>
        <time>2009-05-05T14:04:43Z</time>
      </trkpt>
      <trkpt lat="43.8427" lon="6.74367">
        <ele>1031</ele>
        <time>2009-05-05T14:10:03Z</time>
      </trkpt>
      <trkpt lat="43.83762" lon="6.74507">
        <ele>1067</ele>
        <time>2009-05-05T14:13:35Z</time>
      </trkpt>
      <trkpt lat="43.84061" lon="6.74987">
        <ele>1105</ele>
        <time>2009-05-05T14:21:01Z</time>
      </trkpt>
      <trkpt lat="43.84019" lon="6.75644">
        <ele>1171</ele>
        <time>2009-05-05T14:26:49Z</time>
      </trkpt>
      <trkpt lat="43.84117" lon="6.77024">
        <ele>1247</ele>
        <time>2009-05-05T14:39:35Z</time>
      </trkpt>
      <trkpt lat="43.8394" lon="6.76909">
        <ele>1270</ele>
        <time>2009-05-05T14:43:32Z</time>
      </trkpt>
      <trkpt lat="43.84125" lon="6.77352">
        <ele>1267</ele>
        <time>2009-05-05T14:52:47Z</time>
      </trkpt>
      <trkpt lat="43.84383" lon="6.77516">
        <ele>1305</ele>
        <time>2009-05-05T15:06:20Z</time>
      </trkpt>
      <trkpt lat="43.84991" lon="6.78574">
        <ele>1225</ele>
        <time>2009-05-05T15:22:12Z</time>
      </trkpt>
      <trkpt lat="43.85175" lon="6.78731">
        <ele>1159</ele>
        <time>2009-05-05T15:26:04Z</time>
      </trkpt>
      <trkpt lat="43.85181" lon="6.78582">
        <ele>1141</ele>
        <time>2009-05-05T15:26:36Z</time>
      </trkpt>
      <trkpt lat="43.85316" lon="6.7887">
        <ele>1080</ele>
        <time>2009-05-05T15:28:33Z</time>
      </trkpt>
      <trkpt lat="43.85517" lon="6.78886">
        <ele>971</ele>
        <time>2009-05-05T15:32:25Z</time>
      </trkpt>
      <trkpt lat="43.85403" lon="6.7916">
        <ele>942</ele>
        <time>2009-05-05T15:34:22Z</time>
      </trkpt>
      <trkpt lat="43.85491" lon="6.79214">
        <ele>970</ele>
        <time>2009-05-05T15:34:58Z</time>
      </trkpt>
      <trkpt lat="43.85654" lon="6.79386">
        <ele>945</ele>
        <time>2009-05-05T15:36:19Z</time>
      </trkpt>
      <trkpt lat="43.8609" lon="6.79532">
        <ele>848</ele>
        <time>2009-05-05T15:40:26Z</time>
      </trkpt>
      <trkpt lat="43.86247" lon="6.80657">
        <ele>743</ele>
        <time>2009-05-05T14:20:57Z</time>
      </trkpt>
      <trkpt lat="43.85917" lon="6.81235">
        <ele>762</ele>
        <time>2009-05-05T14:25:25Z</time>
      </trkpt>
      <trkpt lat="43.85776" lon="6.82588">
        <ele>727</ele>
        <time>2009-05-05T14:31:48Z</time>
      </trkpt>
      <trkpt lat="43.86511" lon="6.84364">
        <ele>705</ele>
        <time>2009-05-05T14:48:28Z</time>
      </trkpt>
      <trkpt lat="43.86552" lon="6.85685">
        <ele>788</ele>
        <time>2009-05-05T15:13:10Z</time>
      </trkpt>
      <trkpt lat="43.8662" lon="6.86201">
        <ele>705</ele>
        <time>2009-05-05T15:15:28Z</time>
      </trkpt>
      <trkpt lat="43.8719" lon="6.86881">
        <ele>606</ele>
        <time>2009-05-05T15:22:27Z</time>
      </trkpt>
      <trkpt lat="43.87114" lon="6.87096">
        <ele>571</ele>
        <time>2009-05-05T15:27:28Z</time>
      </trkpt>
      <trkpt lat="43.86844" lon="6.86959">
        <ele>643</ele>
        <time>2009-05-05T15:30:37Z</time>
      </trkpt>
      <trkpt lat="43.87018" lon="6.8685">
        <ele>671</ele>
        <time>2009-05-05T15:36:27Z</time>
      </trkpt>
      <trkpt lat="43.86741" lon="6.86497">
        <ele>701</ele>
        <time>2009-05-05T15:40:27Z</time>
      </trkpt>
      <trkpt lat="43.86439" lon="6.86818">
        <ele>736</ele>
        <time>2009-05-05T15:44:34Z</time>
      </trkpt>
      <trkpt lat="43.86206" lon="6.86751">
        <ele>786</ele>
        <time>2009-05-05T15:48:16Z</time>
      </trkpt>
      <trkpt lat="43.86058" lon="6.85739">
        <ele>867</ele>
        <time>2009-05-05T15:57:25Z</time>
      </trkpt>
      <trkpt lat="43.8595" lon="6.87196">
        <ele>970</ele>
        <time>2009-05-05T16:09:53Z</time>
      </trkpt>
      <trkpt lat="43.8603" lon="6.88087">
        <ele>1015</ele>
        <time>2009-05-05T16:16:27Z</time>
      </trkpt>
      <trkpt lat="43.86259" lon="6.89004">
        <ele>1004</ele>
        <time>2009-05-05T16:25:02Z</time>
      </trkpt>
      <trkpt lat="43.85889" lon="6.89482">
        <ele>1164</ele>
        <time>2009-05-05T16:57:36Z</time>
      </trkpt>
      <trkpt lat="43.85725" lon="6.89302">
        <ele>1106</ele>
        <time>2009-05-05T17:01:42Z</time>
      </trkpt>
      <trkpt lat="43.85657" lon="6.89582">
        <ele>1026</ele>
        <time>2009-05-05T17:03:09Z</time>
      </trkpt>
      <trkpt lat="43.85533" lon="6.89488">
        <ele>970</ele>
        <time>2009-05-05T17:05:00Z</time>
      </trkpt>
      <trkpt lat="43.85575" lon="6.90197">
        <ele>758</ele>
        <time>2009-05-05T17:13:25Z</time>
      </trkpt>
      <trkpt lat="43.85265" lon="6.89924">
        <ele>692</ele>
        <time>2009-05-05T17:17:22Z</time>
      </trkpt>
      <trkpt lat="43.85146" lon="6.89927">
        <ele>653</ele>
        <time>2009-05-05T17:18:43Z</time>
      </trkpt>
      <trkpt lat="43.85185" lon="6.89987">
        <ele>629</ele>
        <time>2009-05-05T17:24:05Z</time>
      </trkpt>
      <trkpt lat="43.85391" lon="6.90628">
        <ele>608</ele>
        <time>2009-05-05T17:25:47Z</time>
      </trkpt>
      <trkpt lat="43.85453" lon="6.91137">
        <ele>510</ele>
        <time>2009-05-05T17:27:35Z</time>
      </trkpt>
      <trkpt lat="43.85362" lon="6.91557">
        <ele>476</ele>
        <time>2009-05-05T17:36:24Z</time>
      </trkpt>
      <trkpt lat="43.85583" lon="6.9152">
        <ele>543</ele>
        <time>2009-05-05T17:39:20Z</time>
      </trkpt>
      <trkpt lat="43.85452" lon="6.91919">
        <ele>612</ele>
        <time>2009-05-05T17:41:21Z</time>
      </trkpt>
      <trkpt lat="43.85578" lon="6.92822">
        <ele>601</ele>
        <time>2009-05-06T06:13:40Z</time>
      </trkpt>
      <trkpt lat="43.86319" lon="6.9361">
        <ele>509</ele>
        <time>2009-05-06T06:21:16Z</time>
      </trkpt>
      <trkpt lat="43.863" lon="6.93794">
        <ele>514</ele>
        <time>2009-05-06T06:21:55Z</time>
      </trkpt>
      <trkpt lat="43.8627" lon="6.94293">
        <ele>461</ele>
        <time>2009-05-06T06:23:22Z</time>
      </trkpt>
      <trkpt lat="43.86464" lon="6.94428">
        <ele>410</ele>
        <time>2009-05-06T06:28:21Z</time>
      </trkpt>
      <trkpt lat="43.86624" lon="6.95475">
        <ele>390</ele>
        <time>2009-05-06T06:34:00Z</time>
      </trkpt>
      <trkpt lat="43.8634" lon="6.96564">
        <ele>491</ele>
        <time>2009-05-06T06:57:52Z</time>
      </trkpt>
      <trkpt lat="43.86502" lon="6.97493">
        <ele>511</ele>
        <time>2009-05-06T07:02:43Z</time>
      </trkpt>
      <trkpt lat="43.86814" lon="6.98284">
        <ele>480</ele>
        <time>2009-05-06T07:05:20Z</time>
      </trkpt>
      <trkpt lat="43.86819" lon="6.98534">
        <ele>428</ele>
        <time>2009-05-06T07:06:23Z</time>
      </trkpt>
      <trkpt lat="43.87417" lon="6.99033">
        <ele>403</ele>
        <time>2009-05-06T07:22:23Z</time>
      </trkpt>
      <trkpt lat="43.87474" lon="6.99335">
        <ele>368</ele>
        <time>2009-05-06T07:23:03Z</time>
      </trkpt>
      <trkpt lat="43.87233" lon="7.00611">
        <ele>343</ele>
        <time>2009-05-06T07:28:52Z</time>
      </trkpt>
      <trkpt lat="43.86998" lon="7.00429">
        <ele>328</ele>
        <time>2009-05-06T07:32:57Z</time>
      </trkpt>
      <trkpt lat="43.86555" lon="7.00501">
        <ele>384</ele>
        <time>2009-05-06T07:42:07Z</time>
      </trkpt>
      <trkpt lat="43.86486" lon="7.00844">
        <ele>438</ele>
        <time>2009-05-06T07:45:26Z</time>
      </trkpt>
      <trkpt lat="43.86315" lon="7.01391">
        <ele>491</ele>
        <time>2009-05-06T07:50:36Z</time>
      </trkpt>
      <trkpt lat="43.86304" lon="7.0142">
        <ele>492</ele>
        <time>2009-05-06T07:50:54Z</time>
      </trkpt>
      <trkpt lat="43.85906" lon="7.005">
        <ele>648</ele>
        <time>2009-05-06T08:01:58Z</time>
      </trkpt>
      <trkpt lat="43.85744" lon="7.00142">
        <ele>653</ele>
        <time>2009-05-06T08:10:23Z</time>
      </trkpt>
      <trkpt lat="43.86048" lon="7.00301">
        <ele>673</ele>
        <time>2009-05-06T08:13:32Z</time>
      </trkpt>
      <trkpt lat="43.85776" lon="6.99883">
        <ele>690</ele>
        <time>2009-05-06T08:17:59Z</time>
      </trkpt>
      <trkpt lat="43.85734" lon="6.99663">
        <ele>699</ele>
        <time>2009-05-06T08:18:50Z</time>
      </trkpt>
      <trkpt lat="43.85571" lon="6.99632">
        <ele>713</ele>
        <time>2009-05-06T08:19:50Z</time>
      </trkpt>
      <trkpt lat="43.85194" lon="6.9967">
        <ele>731</ele>
        <time>2009-05-06T08:26:03Z</time>
      </trkpt>
      <trkpt lat="43.85133" lon="6.98962">
        <ele>803</ele>
        <time>2009-05-06T08:30:28Z</time>
      </trkpt>
      <trkpt lat="43.85151" lon="6.98921">
        <ele>792</ele>
        <time>2009-05-06T08:30:52Z</time>
      </trkpt>
      <trkpt lat="43.85023" lon="6.9949">
        <ele>852</ele>
        <time>2009-05-06T08:35:20Z</time>
      </trkpt>
      <trkpt lat="43.85023" lon="6.98694">
        <ele>896</ele>
        <time>2009-05-06T08:40:03Z</time>
      </trkpt>
      <trkpt lat="43.846" lon="6.99297">
        <ele>889</ele>
        <time>2009-05-06T08:42:25Z</time>
      </trkpt>
      <trkpt lat="43.8432" lon="6.99105">
        <ele>869</ele>
        <time>2010-10-06T12:20:33Z</time>
      </trkpt>
      <trkpt lat="43.83255" lon="7.01843">
        <ele>1297</ele>
        <time>2010-10-06T13:13:50Z</time>
      </trkpt>
      <trkpt lat="43.83239" lon="7.0194">
        <ele>1302</ele>
        <time>2010-10-06T13:15:54Z</time>
      </trkpt>
      <trkpt lat="43.83269" lon="7.01034">
        <ele>1324</ele>
        <time>2010-10-06T13:36:13Z</time>
      </trkpt>
      <trkpt lat="43.83019" lon="7.00502">
        <ele>1437</ele>
        <time>2010-10-06T14:10:39Z</time>
      </trkpt>
      <trkpt lat="43.83027" lon="7.00542">
        <ele>1437</ele>
        <time>2010-10-06T14:11:09Z</time>
      </trkpt>
      <trkpt lat="43.82908" lon="7.01098">
        <ele>1467</ele>
        <time>2010-10-06T14:18:09Z</time>
      </trkpt>
      <trkpt lat="43.82572" lon="7.01238">
        <ele>1474</ele>
        <time>2010-10-06T14:28:20Z</time>
      </trkpt>
      <trkpt lat="43.82229" lon="7.00996">
        <ele>1504</ele>
        <time>2010-10-06T14:32:29Z</time>
      </trkpt>
      <trkpt lat="43.8198" lon="7.00657">
        <ele>1467</ele>
        <time>2010-10-06T14:42:25Z</time>
      </trkpt>
      <trkpt lat="43.81993" lon="7.00965">
        <ele>1440</ele>
        <time>2010-10-06T14:45:14Z</time>
      </trkpt>
      <trkpt lat="43.81247" lon="7.01661">
        <ele>1433</ele>
        <time>2010-10-06T14:56:54Z</time>
      </trkpt>
      <trkpt lat="43.80807" lon="7.02893">
        <ele>1444</ele>
        <time>2010-10-06T15:05:10Z</time>
      </trkpt>
      <trkpt lat="43.806" lon="7.03137">
        <ele>1422</ele>
        <time>2010-10-06T15:11:55Z</time>
      </trkpt>
      <trkpt lat="43.80477" lon="7.03279">
        <ele>1382</ele>
        <time>2010-10-06T15:12:59Z</time>
      </trkpt>
      <trkpt lat="43.8052" lon="7.03137">
        <ele>1371</ele>
        <time>2010-10-06T15:14:04Z</time>
      </trkpt>
      <trkpt lat="43.80473" lon="7.03207">
        <ele>1361</ele>
        <time>2010-10-06T15:14:24Z</time>
      </trkpt>
      <trkpt lat="43.80401" lon="7.03121">
        <ele>1295</ele>
        <time>2010-10-06T15:16:40Z</time>
      </trkpt>
      <trkpt lat="43.80454" lon="7.02982">
        <ele>1274</ele>
        <time>2010-10-06T15:17:20Z</time>
      </trkpt>
      <trkpt lat="43.80225" lon="7.02806">
        <ele>1159</ele>
        <time>2010-10-06T15:25:47Z</time>
      </trkpt>
      <trkpt lat="43.79581" lon="7.04219">
        <ele>1008</ele>
        <time>2010-10-06T15:43:29Z</time>
      </trkpt>
      <trkpt lat="43.79471" lon="7.04065">
        <ele>1059</ele>
        <time>2010-10-06T15:59:20Z</time>
      </trkpt>
      <trkpt lat="43.78997" lon="7.04857">
        <ele>971</ele>
        <time>2010-10-06T16:12:23Z</time>
      </trkpt>
      <trkpt lat="43.78579" lon="7.05123">
        <ele>903</ele>
        <time>2010-10-06T16:14:33Z</time>
      </trkpt>
      <trkpt lat="43.78109" lon="7.05966">
        <ele>997</ele>
        <time>2010-10-06T16:32:06Z</time>
      </trkpt>
      <trkpt lat="43.77532" lon="7.06335">
        <ele>1086</ele>
        <time>2010-10-06T16:46:51Z</time>
      </trkpt>
      <trkpt lat="43.77311" lon="7.06235">
        <ele>1061</ele>
        <time>2010-10-06T16:50:16Z</time>
      </trkpt>
      <trkpt lat="43.77292" lon="7.05571">
        <ele>1007</ele>
        <time>2010-10-06T16:54:46Z</time>
      </trkpt>
      <trkpt lat="43.76833" lon="7.06947">
        <ele>934</ele>
        <time>2010-10-06T17:02:51Z</time>
      </trkpt>
      <trkpt lat="43.77542" lon="7.07652">
        <ele>845</ele>
        <time>2010-10-06T17:11:21Z</time>
      </trkpt>
      <trkpt lat="43.77764" lon="7.07734">
        <ele>761</ele>
        <time>2010-10-06T17:13:01Z</time>
      </trkpt>
      <trkpt lat="43.78165" lon="7.08805">
        <ele>636</ele>
        <time>2010-10-06T17:23:15Z</time>
      </trkpt>
      <trkpt lat="43.78366" lon="7.09698">
        <ele>753</ele>
        <time>2010-10-06T17:36:15Z</time>
      </trkpt>
      <trkpt lat="43.78382" lon="7.09725">
        <ele>740</ele>
        <time>2010-10-06T17:36:35Z</time>
      </trkpt>
      <trkpt lat="43.78521" lon="7.08936">
        <ele>838</ele>
        <time>2010-10-06T17:46:10Z</time>
      </trkpt>
      <trkpt lat="43.78783" lon="7.09175">
        <ele>875</ele>
        <time>2010-10-06T17:49:00Z</time>
      </trkpt>
      <trkpt lat="43.79161" lon="7.0913">
        <ele>881</ele>
        <time>2010-10-06T17:53:10Z</time>
      </trkpt>
      <trkpt lat="43.79189" lon="7.09058">
        <ele>916</ele>
        <time>2010-10-06T17:53:50Z</time>
      </trkpt>
      <trkpt lat="43.79327" lon="7.08747">
        <ele>943</ele>
        <time>2010-10-06T17:56:40Z</time>
      </trkpt>
      <trkpt lat="43.79408" lon="7.08566">
        <ele>954</ele>
        <time>2010-10-06T17:57:50Z</time>
      </trkpt>
      <trkpt lat="43.79749" lon="7.08382">
        <ele>956</ele>
        <time>2010-10-06T18:09:20Z</time>
      </trkpt>
      <trkpt lat="43.79798" lon="7.086">
        <ele>1007</ele>
        <time>2010-10-06T13:39:01Z</time>
      </trkpt>
      <trkpt lat="43.80001" lon="7.09051">
        <ele>903</ele>
        <time>2010-10-06T13:45:48Z</time>
      </trkpt>
      <trkpt lat="43.8009" lon="7.11309">
        <ele>903</ele>
        <time>2010-10-06T14:03:27Z</time>
      </trkpt>
      <trkpt lat="43.79622" lon="7.11481">
        <ele>958</ele>
        <time>2010-10-06T14:15:07Z</time>
      </trkpt>
      <trkpt lat="43.79505" lon="7.12585">
        <ele>1023</ele>
        <time>2010-10-06T14:25:18Z</time>
      </trkpt>
      <trkpt lat="43.7936" lon="7.12719">
        <ele>1023</ele>
        <time>2010-10-06T14:26:28Z</time>
      </trkpt>
      <trkpt lat="43.78775" lon="7.14336">
        <ele>892</ele>
        <time>2010-10-06T14:51:02Z</time>
      </trkpt>
      <trkpt lat="43.78375" lon="7.14241">
        <ele>846</ele>
        <time>2010-10-06T14:58:11Z</time>
      </trkpt>
      <trkpt lat="43.78661" lon="7.14698">
        <ele>811</ele>
        <time>2010-10-06T15:01:38Z</time>
      </trkpt>
      <trkpt lat="43.78674" lon="7.14705">
        <ele>771</ele>
        <time>2010-10-06T15:03:03Z</time>
      </trkpt>
      <trkpt lat="43.78646" lon="7.14693">
        <ele>816</ele>
        <time>2010-10-06T15:07:36Z</time>
      </trkpt>
      <trkpt lat="43.78595" lon="7.14662">
        <ele>813</ele>
        <time>2010-10-06T15:07:56Z</time>
      </trkpt>
      <trkpt lat="43.78509" lon="7.14601">
        <ele>825</ele>
        <time>2010-10-06T15:08:26Z</time>
      </trkpt>
      <trkpt lat="43.78376" lon="7.14407">
        <ele>808</ele>
        <time>2010-10-06T15:11:59Z</time>
      </trkpt>
      <trkpt lat="43.78276" lon="7.14386">
        <ele>841</ele>
        <time>2010-10-06T15:13:16Z</time>
      </trkpt>
      <trkpt lat="43.77785" lon="7.14202">
        <ele>850</ele>
        <time>2010-10-06T15:20:30Z</time>
      </trkpt>
      <trkpt lat="43.77468" lon="7.13989">
        <ele>792</ele>
        <time>2010-10-06T15:34:03Z</time>
      </trkpt>
      <trkpt lat="43.76952" lon="7.1448">
        <ele>749</ele>
        <time>2010-10-06T15:43:02Z</time>
      </trkpt>
      <trkpt lat="43.75723" lon="7.14333">
        <ele>639</ele>
        <time>2010-10-06T15:52:31Z</time>
      </trkpt>
      <trkpt lat="43.75011" lon="7.14155">
        <ele>507</ele>
        <time>2010-10-06T16:03:19Z</time>
      </trkpt>
      <trkpt lat="43.74807" lon="7.14294">
        <ele>461</ele>
        <time>2010-10-06T16:14:01Z</time>
      </trkpt>
      <trkpt lat="43.74931" lon="7.147">
        <ele>418</ele>
        <time>2010-10-06T16:23:19Z</time>
      </trkpt>
      <trkpt lat="43.75" lon="7.15579">
        <ele>385</ele>
        <time>2010-10-06T16:33:53Z</time>
      </trkpt>
      <trkpt lat="43.75057" lon="7.1576">
        <ele>375</ele>
        <time>2010-10-06T16:34:23Z</time>
      </trkpt>
      <trkpt lat="43.75985" lon="7.16699">
        <ele>411</ele>
        <time>2010-10-06T16:49:24Z</time>
      </trkpt>
    </trkseg>
  </trk>
</gpx>